Time;durP1;ratioP1;P1;durP2;ratioP2;P2;SDS_P1;SDS_P2;PMS_P1;PMS_P2;Temp;Humidity;BMP_temperature;BMP_pressure;BME280_temperature;BME280_humidity;BME280_pressure;Samples;Min_cycle;Max_cycle;Signal;HPM_P1;HPM_P2
2021/07/30 00:01:14;;;;;;;7.03;6.53;;;;;;;12.63;100.00;97726.44;5054517;28;20203;-66
2021/07/30 00:03:42;;;;;;;7.00;6.50;;;;;;;12.66;100.00;97728.75;5042221;28;20226;-67
2021/07/30 00:06:26;;;;;;;6.80;6.27;;;;;;;12.64;100.00;97728.91;5046872;28;20674;-66
2021/07/30 00:08:54;;;;;;;6.80;6.30;;;;;;;12.67;100.00;97730.38;5052946;28;20553;-66
2021/07/30 00:11:22;;;;;;;6.73;6.13;;;;;;;12.72;100.00;97728.00;5057588;28;20228;-64
2021/07/30 00:13:51;;;;;;;6.83;6.23;;;;;;;12.64;100.00;97736.06;5051993;28;20207;-66
2021/07/30 00:16:19;;;;;;;6.53;6.10;;;;;;;12.76;100.00;97728.47;5051674;28;20786;-66
2021/07/30 00:18:47;;;;;;;6.60;6.20;;;;;;;12.62;100.00;97730.13;5049243;28;20210;-67
2021/07/30 00:21:15;;;;;;;6.77;6.27;;;;;;;12.49;100.00;97731.56;5051100;28;20599;-66
2021/07/30 00:23:43;;;;;;;6.50;6.10;;;;;;;12.50;100.00;97737.72;5055546;28;20204;-67
2021/07/30 00:26:11;;;;;;;7.07;6.57;;;;;;;12.42;100.00;97736.81;5051352;28;20641;-66
2021/07/30 00:28:39;;;;;;;7.03;6.53;;;;;;;12.49;100.00;97746.69;5055429;28;20214;-67
2021/07/30 00:31:08;;;;;;;7.50;6.87;;;;;;;12.52;100.00;97746.34;5055631;28;20210;-66
2021/07/30 00:33:36;;;;;;;7.40;6.80;;;;;;;12.37;100.00;97741.84;5053765;28;20195;-67
2021/07/30 00:36:05;;;;;;;7.00;6.40;;;;;;;12.43;100.00;97742.94;5057727;28;20231;-66
2021/07/30 00:38:33;;;;;;;7.43;6.83;;;;;;;12.43;100.00;97735.78;5056702;28;20210;-67
2021/07/30 00:41:01;;;;;;;6.90;6.40;;;;;;;12.41;100.00;97742.28;5052450;28;20207;-66
2021/07/30 00:43:29;;;;;;;7.20;6.60;;;;;;;12.38;100.00;97746.16;5054870;28;20214;-66
2021/07/30 00:45:58;;;;;;;7.40;6.80;;;;;;;12.37;100.00;97744.50;5048491;28;20199;-66
2021/07/30 00:48:29;;;;;;;7.00;6.40;;;;;;;12.26;100.00;97743.09;5052777;28;20207;-65
2021/07/30 00:50:57;;;;;;;10.00;6.90;;;;;;;12.34;100.00;97738.72;5053673;28;20580;-67
2021/07/30 00:53:26;;;;;;;6.80;6.30;;;;;;;12.28;100.00;97737.59;5050254;28;20714;-66
2021/07/30 00:55:57;;;;;;;7.03;6.43;;;;;;;12.36;100.00;97742.84;5056487;28;20273;-66
2021/07/30 00:58:26;;;;;;;6.87;6.30;;;;;;;12.28;100.00;97737.59;5047623;28;20214;-67
2021/07/30 01:00:55;;;;;;;7.70;7.10;;;;;;;12.22;100.00;97735.66;5049325;28;20609;-65
2021/07/30 01:03:23;;;;;;;7.73;7.13;;;;;;;12.19;100.00;97736.88;5055539;28;20196;-67
2021/07/30 01:05:52;;;;;;;7.20;6.50;;;;;;;12.24;100.00;97739.81;5050344;28;20238;-66
2021/07/30 01:08:21;;;;;;;6.67;6.17;;;;;;;12.17;100.00;97741.53;5055567;28;20199;-64
2021/07/30 01:10:50;;;;;;;6.50;6.00;;;;;;;12.22;100.00;97733.84;5051899;28;20229;-65
2021/07/30 01:13:18;;;;;;;7.27;6.57;;;;;;;12.11;100.00;97737.75;5046117;28;20230;-65
2021/07/30 01:15:46;;;;;;;8.00;6.90;;;;;;;12.01;100.00;97739.84;5056108;28;20389;-66
2021/07/30 01:18:14;;;;;;;7.20;6.67;;;;;;;12.04;100.00;97739.50;5052925;28;20298;-66
2021/07/30 01:20:44;;;;;;;7.67;6.83;;;;;;;12.01;100.00;97735.34;5051798;28;20236;-66
2021/07/30 01:23:14;;;;;;;6.77;6.17;;;;;;;11.95;100.00;97730.72;5046546;28;20211;-66
2021/07/30 01:25:42;;;;;;;7.20;6.63;;;;;;;11.93;100.00;97730.09;5052744;28;20195;-66
2021/07/30 01:28:10;;;;;;;6.97;6.50;;;;;;;11.83;100.00;97730.31;5054330;28;20419;-66
2021/07/30 01:30:38;;;;;;;8.13;7.43;;;;;;;11.82;100.00;97727.88;5053843;28;20480;-68
2021/07/30 01:33:06;;;;;;;7.43;6.83;;;;;;;11.81;100.00;97724.38;5054714;28;20199;-65
2021/07/30 01:35:34;;;;;;;7.33;6.83;;;;;;;11.92;100.00;97724.94;5060300;28;20206;-66
2021/07/30 01:38:01;;;;;;;7.67;6.97;;;;;;;11.84;100.00;97728.50;5052115;28;20282;-66
2021/07/30 01:40:31;;;;;;;8.47;7.77;;;;;;;11.72;100.00;97730.75;5056047;28;20207;-66
2021/07/30 01:42:59;;;;;;;7.97;7.10;;;;;;;11.88;100.00;97729.81;5053759;28;20318;-65
2021/07/30 01:45:27;;;;;;;7.43;6.73;;;;;;;11.69;100.00;97734.59;5053882;28;20203;-66
2021/07/30 01:47:55;;;;;;;8.67;7.77;;;;;;;11.69;100.00;97725.81;5057442;28;20589;-65
2021/07/30 01:50:22;;;;;;;7.53;6.93;;;;;;;11.77;100.00;97725.72;5054448;28;20200;-66
2021/07/30 01:52:50;;;;;;;8.33;7.63;;;;;;;11.69;100.00;97728.47;5052716;28;20588;-67
2021/07/30 01:55:18;;;;;;;7.23;6.73;;;;;;;11.53;100.00;97724.91;5057890;28;20597;-68
2021/07/30 01:57:48;;;;;;;7.67;6.97;;;;;;;11.43;100.00;97719.84;5058984;28;20729;-66
2021/07/30 02:00:16;;;;;;;7.70;7.10;;;;;;;11.43;100.00;97724.31;5055548;28;20207;-65
2021/07/30 02:02:44;;;;;;;8.00;6.97;;;;;;;11.37;100.00;97727.69;5057553;28;20203;-66
2021/07/30 02:05:12;;;;;;;6.97;6.47;;;;;;;11.34;100.00;97728.84;5049237;28;20207;-66
2021/07/30 02:07:40;;;;;;;7.10;6.50;;;;;;;11.38;100.00;97724.88;5055495;28;20227;-67
2021/07/30 02:10:09;;;;;;;7.27;6.67;;;;;;;11.38;100.00;97732.81;5054547;28;20210;-65
2021/07/30 02:15:20;;;;;;;7.13;6.43;;;;;;;11.40;100.00;97727.31;5052020;28;20210;-66
2021/07/30 02:17:48;;;;;;;8.43;7.73;;;;;;;11.37;100.00;97730.34;5050721;28;20235;-64
2021/07/30 02:20:16;;;;;;;7.87;7.20;;;;;;;11.29;100.00;97728.56;5056869;28;20524;-66
2021/07/30 02:22:44;;;;;;;7.50;6.83;;;;;;;11.26;100.00;97729.75;5054436;28;20204;-63
2021/07/30 02:25:12;;;;;;;7.40;6.77;;;;;;;11.22;100.00;97736.41;5049740;28;20202;-66
2021/07/30 02:27:40;;;;;;;8.37;7.67;;;;;;;11.20;100.00;97743.72;5056373;28;21313;-64
2021/07/30 02:30:09;;;;;;;7.50;6.90;;;;;;;11.26;100.00;97744.81;5050278;28;20204;-66
2021/07/30 02:32:38;;;;;;;7.33;6.73;;;;;;;11.26;100.00;97748.31;5053727;28;20203;-67
2021/07/30 02:35:07;;;;;;;7.60;7.10;;;;;;;11.28;100.00;97737.50;5060451;28;20213;-67
2021/07/30 02:37:35;;;;;;;8.17;7.43;;;;;;;11.18;100.00;97735.09;5049250;28;20757;-67
2021/07/30 02:40:03;;;;;;;7.30;6.80;;;;;;;11.13;100.00;97735.59;5057269;28;20246;-67
2021/07/30 02:42:31;;;;;;;8.07;7.47;;;;;;;11.17;100.00;97735.25;5051983;28;20207;-65
2021/07/30 02:45:00;;;;;;;9.03;8.23;;;;;;;11.14;100.00;97737.25;5054230;28;20368;-65
2021/07/30 02:47:28;;;;;;;8.90;8.17;;;;;;;11.23;100.00;97740.69;5060079;28;20772;-66
2021/07/30 02:49:57;;;;;;;9.23;8.33;;;;;;;11.15;100.00;97740.72;5057607;28;20203;-65
2021/07/30 02:52:25;;;;;;;8.43;7.67;;;;;;;11.13;100.00;97740.91;5053625;28;20687;-66
2021/07/30 02:54:53;;;;;;;8.80;8.13;;;;;;;11.18;100.00;97740.41;5056797;28;20679;-67
2021/07/30 02:57:21;;;;;;;9.37;8.57;;;;;;;11.18;100.00;97736.91;5053561;28;20598;-64
2021/07/30 02:59:49;;;;;;;9.03;8.23;;;;;;;11.18;100.00;97728.97;5056708;28;20222;-67
2021/07/30 03:02:16;;;;;;;9.10;8.27;;;;;;;11.26;100.00;97729.75;5055480;28;20212;-66
2021/07/30 03:04:45;;;;;;;9.50;8.13;;;;;;;11.22;100.00;97733.75;5057696;28;20709;-65
2021/07/30 03:07:14;;;;;;;9.10;8.40;;;;;;;11.19;100.00;97731.44;5054936;28;20224;-65
2021/07/30 03:09:42;;;;;;;8.87;8.00;;;;;;;11.18;100.00;97728.97;5055577;28;20667;-66
2021/07/30 03:12:10;;;;;;;9.17;8.27;;;;;;;11.18;100.00;97729.78;5054768;28;20373;-66
2021/07/30 03:14:38;;;;;;;9.00;8.30;;;;;;;11.22;100.00;97728.44;5055135;28;20211;-67
2021/07/30 03:17:07;;;;;;;9.40;8.13;;;;;;;11.17;100.00;97725.47;5053405;28;20325;-66
2021/07/30 03:19:35;;;;;;;9.67;8.87;;;;;;;11.06;100.00;97724.06;5055132;28;20835;-66
2021/07/30 03:22:03;;;;;;;9.77;8.97;;;;;;;10.99;100.00;97715.16;5055735;28;20204;-66
2021/07/30 03:24:32;;;;;;;9.23;8.43;;;;;;;10.98;100.00;97714.31;5055207;28;20227;-66
2021/07/30 03:27:00;;;;;;;9.33;8.00;;;;;;;10.95;100.00;97714.66;5054727;28;20222;-68
2021/07/30 03:29:28;;;;;;;9.03;8.23;;;;;;;10.90;100.00;97710.84;5056684;28;20207;-66
2021/07/30 03:31:56;;;;;;;8.37;7.63;;;;;;;10.85;100.00;97712.22;5054178;28;20207;-66
2021/07/30 03:34:24;;;;;;;9.10;8.30;;;;;;;10.78;100.00;97711.25;5055475;28;20203;-66
2021/07/30 03:36:52;;;;;;;8.57;7.73;;;;;;;10.83;100.00;97716.84;5052822;28;20797;-64
2021/07/30 03:39:20;;;;;;;8.73;8.03;;;;;;;10.74;100.00;97709.09;5053267;28;20223;-66
2021/07/30 03:41:49;;;;;;;9.70;8.80;;;;;;;10.70;100.00;97709.44;5056537;28;20203;-67
2021/07/30 03:44:17;;;;;;;9.03;8.23;;;;;;;10.64;100.00;97706.69;5049476;28;20219;-67
2021/07/30 03:46:45;;;;;;;9.50;8.70;;;;;;;10.69;100.00;97705.16;5048646;28;20253;-69
2021/07/30 03:49:13;;;;;;;8.83;8.13;;;;;;;10.69;100.00;97704.34;5054802;28;20207;-67
2021/07/30 03:51:41;;;;;;;9.00;8.20;;;;;;;10.69;100.00;97699.84;5053584;28;20203;-67
2021/07/30 03:54:09;;;;;;;9.23;8.33;;;;;;;10.68;100.00;97697.38;5056190;28;20347;-67
2021/07/30 03:56:38;;;;;;;9.30;8.50;;;;;;;10.75;100.00;97702.81;5052740;28;20230;-68
2021/07/30 03:59:08;;;;;;;8.83;7.93;;;;;;;10.79;100.00;97698.81;5052698;28;20230;-67
2021/07/30 04:01:36;;;;;;;9.67;8.77;;;;;;;10.87;100.00;97701.44;5055262;28;20195;-66
2021/07/30 04:04:04;;;;;;;9.50;8.70;;;;;;;10.83;100.00;97692.19;5053541;28;20453;-67
2021/07/30 04:06:32;;;;;;;8.93;8.10;;;;;;;10.85;100.00;97695.50;5053219;28;20235;-68
2021/07/30 04:09:02;;;;;;;8.77;8.07;;;;;;;10.83;100.00;97697.50;5051397;28;20195;-67
2021/07/30 04:11:30;;;;;;;8.97;8.27;;;;;;;10.99;100.00;97697.41;5053026;28;20616;-65
2021/07/30 04:13:57;;;;;;;9.47;8.67;;;;;;;11.04;100.00;97704.00;5051938;28;20592;-68
2021/07/30 04:16:28;;;;;;;9.33;8.53;;;;;;;10.99;100.00;97700.03;5054335;28;20743;-66
2021/07/30 04:18:56;;;;;;;9.17;8.37;;;;;;;10.99;100.00;97696.59;5051773;28;20232;-67
2021/07/30 04:21:24;;;;;;;9.50;8.43;;;;;;;10.98;100.00;97709.00;5051649;28;20211;-67
2021/07/30 04:23:51;;;;;;;8.97;8.27;;;;;;;11.02;100.00;97703.34;5049034;28;20237;-68
2021/07/30 04:26:19;;;;;;;9.57;8.63;;;;;;;11.02;100.00;97706.84;5055508;28;20223;-67
2021/07/30 04:28:47;;;;;;;10.40;9.50;;;;;;;11.11;100.00;97704.94;5055264;28;20449;-68
2021/07/30 04:31:15;;;;;;;9.37;8.53;;;;;;;11.15;100.00;97706.25;5056961;28;20574;-66
2021/07/30 04:33:45;;;;;;;9.97;9.07;;;;;;;11.18;100.00;97711.22;5054837;28;20214;-65
2021/07/30 04:36:16;;;;;;;9.60;8.80;;;;;;;11.15;100.00;97700.94;5057117;28;20704;-66
2021/07/30 04:38:45;;;;;;;10.10;9.20;;;;;;;11.19;100.00;97706.72;5053755;28;20227;-68
2021/07/30 04:41:12;;;;;;;10.20;9.20;;;;;;;11.26;100.00;97711.16;5060469;28;20202;-67
2021/07/30 04:43:40;;;;;;;10.07;9.27;;;;;;;11.31;100.00;97700.03;5051389;28;20289;-67
2021/07/30 04:46:15;;;;;;;10.20;9.40;;;;;;;11.40;100.00;97701.63;5053682;28;20227;-67
2021/07/30 04:48:45;;;;;;;10.30;9.30;;;;;;;11.44;100.00;97699.44;5049998;28;20206;-66
2021/07/30 04:51:14;;;;;;;13.83;9.83;;;;;;;11.68;100.00;97695.78;5047387;28;20207;-68
2021/07/30 04:53:42;;;;;;;10.50;9.47;;;;;;;11.93;100.00;97689.41;5055492;28;20598;-67
2021/07/30 04:56:17;;;;;;;9.67;8.87;;;;;;;12.00;100.00;97693.03;5049502;28;20499;-67
2021/07/30 04:58:49;;;;;;;11.30;8.80;;;;;;;12.03;100.00;97692.69;5054828;28;20317;-67
2021/07/30 05:01:17;;;;;;;8.67;7.93;;;;;;;12.21;100.00;97697.66;5052121;28;20210;-69
2021/07/30 05:03:47;;;;;;;9.20;8.50;;;;;;;12.23;100.00;97697.47;5057065;28;20199;-66
2021/07/30 05:06:16;;;;;;;8.73;8.10;;;;;;;12.25;100.00;97698.94;5052826;28;20222;-68
2021/07/30 05:08:44;;;;;;;13.03;8.27;;;;;;;12.35;100.00;97698.69;5051893;28;20210;-69
2021/07/30 05:11:12;;;;;;;9.17;8.37;;;;;;;12.58;100.00;97697.75;5058274;28;20199;-69
2021/07/30 05:13:40;;;;;;;8.87;8.20;;;;;;;12.66;100.00;97689.66;5057695;28;20210;-67
2021/07/30 05:16:09;;;;;;;8.87;8.17;;;;;;;12.53;100.00;97695.66;5054562;28;20218;-68
2021/07/30 05:18:38;;;;;;;10.67;9.07;;;;;;;12.68;100.00;97694.81;5061932;28;20231;-67
2021/07/30 05:21:08;;;;;;;9.23;8.40;;;;;;;12.70;100.00;97696.28;5056557;28;20219;-67
2021/07/30 05:23:36;;;;;;;8.53;7.80;;;;;;;12.96;100.00;97697.63;5058334;28;20203;-68
2021/07/30 05:26:04;;;;;;;9.37;8.50;;;;;;;13.02;100.00;97693.41;5058525;28;20928;-67
2021/07/30 05:28:34;;;;;;;9.83;8.83;;;;;;;13.08;100.00;97691.81;5057056;28;20309;-67
2021/07/30 05:31:02;;;;;;;8.67;7.97;;;;;;;13.12;100.00;97685.94;5058292;28;20589;-68
2021/07/30 05:33:31;;;;;;;8.30;7.70;;;;;;;13.19;100.00;97694.00;5060473;28;20552;-66
2021/07/30 05:35:59;;;;;;;8.80;8.00;;;;;;;13.28;100.00;97689.38;5057012;28;20366;-69
2021/07/30 05:38:28;;;;;;;8.90;8.00;;;;;;;13.38;100.00;97681.91;5060935;28;20226;-68
2021/07/30 05:40:56;;;;;;;9.83;8.70;;;;;;;13.38;100.00;97699.69;5057253;28;20207;-68
2021/07/30 05:43:24;;;;;;;7.90;7.30;;;;;;;13.43;100.00;97692.84;5055613;28;20230;-68
2021/07/30 05:45:52;;;;;;;8.30;7.60;;;;;;;13.54;100.00;97696.00;5061369;28;20199;-67
2021/07/30 05:48:22;;;;;;;8.40;7.60;;;;;;;13.58;100.00;97691.94;5050425;28;20608;-66
2021/07/30 05:50:50;;;;;;;8.70;7.77;;;;;;;13.77;100.00;97693.13;5059143;28;20206;-66
2021/07/30 05:53:19;;;;;;;7.97;7.40;;;;;;;13.79;100.00;97692.94;5061011;28;20211;-68
2021/07/30 05:55:48;;;;;;;10.07;8.17;;;;;;;13.84;100.00;97691.38;5055605;28;20210;-69
2021/07/30 05:58:16;;;;;;;9.27;8.47;;;;;;;13.97;100.00;97692.47;5057238;28;20227;-68
2021/07/30 06:00:44;;;;;;;8.00;7.40;;;;;;;13.98;100.00;97691.47;5061537;28;20571;-68
2021/07/30 06:03:13;;;;;;;8.50;7.70;;;;;;;14.07;100.00;97690.28;5057446;28;20585;-68
2021/07/30 06:05:41;;;;;;;8.27;7.50;;;;;;;14.30;100.00;97687.38;5056808;28;20203;-68
2021/07/30 06:08:08;;;;;;;8.20;7.60;;;;;;;14.38;100.00;97689.06;5057729;28;20234;-67
2021/07/30 06:10:36;;;;;;;7.60;7.00;;;;;;;14.38;100.00;97689.06;5055781;28;20216;-68
2021/07/30 06:13:06;;;;;;;10.50;7.20;;;;;;;14.65;100.00;97691.03;5061084;28;20203;-68
2021/07/30 06:15:34;;;;;;;7.37;6.80;;;;;;;14.72;100.00;97690.09;5058167;28;20210;-68
2021/07/30 06:18:03;;;;;;;7.47;6.83;;;;;;;14.85;100.00;97683.16;5058097;28;20838;-67
2021/07/30 06:20:31;;;;;;;7.70;7.10;;;;;;;14.94;100.00;97681.16;5058320;28;20238;-68
2021/07/30 06:23:00;;;;;;;7.77;7.17;;;;;;;15.22;100.00;97682.88;5054491;28;20567;-68
2021/07/30 06:25:28;;;;;;;8.57;7.70;;;;;;;15.26;100.00;97678.78;5059741;28;20381;-67
2021/07/30 06:27:56;;;;;;;7.77;7.13;;;;;;;15.45;100.00;97685.19;5052414;28;20231;-69
2021/07/30 06:30:25;;;;;;;8.17;7.57;;;;;;;15.54;100.00;97683.97;5056479;28;20199;-69
2021/07/30 06:32:53;;;;;;;8.40;7.57;;;;;;;15.64;100.00;97688.91;5057758;28;20674;-69
2021/07/30 06:35:21;;;;;;;6.50;6.00;;;;;;;15.83;100.00;97687.28;5057913;28;20210;-68
2021/07/30 06:37:49;;;;;;;7.53;6.57;;;;;;;15.89;99.44;97686.50;5054915;28;20722;-68
2021/07/30 06:40:17;;;;;;;7.43;6.83;;;;;;;16.12;98.97;97692.44;5055808;28;20538;-67
2021/07/30 06:42:45;;;;;;;7.43;6.83;;;;;;;16.17;97.13;97692.63;5058144;28;20295;-70
2021/07/30 06:45:13;;;;;;;7.37;6.43;;;;;;;16.38;95.46;97694.25;5062204;28;20207;-69
2021/07/30 06:47:42;;;;;;;8.47;5.57;;;;;;;16.34;95.60;97687.66;5057483;28;20235;-68
2021/07/30 06:50:11;;;;;;;6.77;6.13;;;;;;;16.59;95.13;97695.84;5050571;28;20285;-70
2021/07/30 06:52:39;;;;;;;6.50;5.90;;;;;;;16.72;93.22;97691.50;5053648;28;20199;-70
2021/07/30 06:55:07;;;;;;;6.20;5.70;;;;;;;16.83;92.47;97690.81;5049541;28;20210;-71
2021/07/30 06:57:35;;;;;;;6.77;6.27;;;;;;;17.04;91.58;97687.06;5054478;28;20242;-69
2021/07/30 07:00:04;;;;;;;6.93;6.27;;;;;;;17.18;88.94;97686.97;5059839;28;20655;-69
2021/07/30 07:02:32;;;;;;;6.40;5.73;;;;;;;17.34;88.22;97686.50;5057421;28;20230;-70
2021/07/30 07:05:02;;;;;;;6.27;5.77;;;;;;;17.48;87.50;97689.06;5058423;28;20206;-68
2021/07/30 07:07:30;;;;;;;6.70;6.10;;;;;;;17.75;83.77;97684.34;5050270;28;20224;-70
2021/07/30 07:09:58;;;;;;;6.30;5.80;;;;;;;17.91;83.51;97685.66;5053991;28;20294;-70
2021/07/30 07:12:26;;;;;;;5.93;5.43;;;;;;;17.98;80.50;97682.09;5056638;28;20210;-69
2021/07/30 07:14:54;;;;;;;5.77;5.33;;;;;;;17.97;78.72;97683.97;5056267;28;20203;-70
2021/07/30 07:17:22;;;;;;;6.17;5.50;;;;;;;18.12;79.22;97677.47;5057124;28;20234;-69
2021/07/30 07:19:50;;;;;;;5.50;5.00;;;;;;;18.39;78.05;97675.38;5056256;28;20215;-70
2021/07/30 07:22:19;;;;;;;5.83;5.33;;;;;;;18.41;75.81;97670.59;5057044;28;20206;-69
2021/07/30 07:24:47;;;;;;;6.40;5.90;;;;;;;18.54;74.34;97671.50;5058801;28;20613;-68
2021/07/30 07:27:15;;;;;;;5.60;5.00;;;;;;;18.69;74.16;97665.75;5050976;28;20227;-69
2021/07/30 07:29:43;;;;;;;5.20;4.80;;;;;;;18.74;74.74;97664.03;5059642;28;20202;-67
2021/07/30 07:32:10;;;;;;;5.50;5.10;;;;;;;18.98;75.59;97668.75;5067980;28;20234;-68
2021/07/30 07:34:39;;;;;;;5.40;4.90;;;;;;;19.19;73.51;97656.69;5061300;28;20362;-67
2021/07/30 07:37:06;;;;;;;6.57;5.57;;;;;;;19.36;72.41;97662.25;5051384;28;20317;-69
2021/07/30 07:39:36;;;;;;;4.57;4.17;;;;;;;19.51;71.77;97653.75;5052762;28;20226;-68
2021/07/30 07:42:04;;;;;;;5.30;4.90;;;;;;;19.48;69.82;97655.00;5059332;28;20214;-66
2021/07/30 07:44:32;;;;;;;5.77;5.27;;;;;;;19.59;68.76;97648.03;5053479;28;20535;-67
2021/07/30 07:47:00;;;;;;;5.63;5.10;;;;;;;19.36;69.82;97646.13;5055818;28;20230;-66
2021/07/30 07:49:29;;;;;;;8.10;5.10;;;;;;;19.70;69.78;97638.34;5056070;28;20328;-66
2021/07/30 07:51:56;;;;;;;5.10;4.57;;;;;;;19.93;69.06;97644.81;5058130;28;20500;-66
2021/07/30 07:54:46;;;;;;;6.43;4.67;;;;;;;20.22;66.20;97640.38;5054903;28;20210;-65
2021/07/30 07:57:14;;;;;;;5.10;4.37;;;;;;;20.16;62.13;97648.56;5051054;28;20231;-66
2021/07/30 07:59:42;;;;;;;4.23;3.93;;;;;;;20.30;63.20;97641.09;5056549;28;20231;-66
2021/07/30 08:02:10;;;;;;;4.30;3.90;;;;;;;20.44;62.88;97641.63;5055726;28;20205;-67
2021/07/30 08:04:38;;;;;;;4.47;4.17;;;;;;;20.55;61.13;97646.19;5059764;28;20207;-66
2021/07/30 08:07:09;;;;;;;3.97;3.57;;;;;;;20.73;59.29;97637.13;5051623;28;20218;-66
2021/07/30 08:09:37;;;;;;;4.60;4.30;;;;;;;20.60;59.95;97642.75;5058204;28;20206;-66
2021/07/30 08:12:07;;;;;;;4.87;4.03;;;;;;;20.84;60.19;97638.19;5054407;28;20207;-66
2021/07/30 08:14:35;;;;;;;5.30;4.50;;;;;;;20.80;58.15;97637.00;5052468;28;20202;-67
2021/07/30 08:17:03;;;;;;;4.57;4.17;;;;;;;20.94;59.03;97640.22;5053751;28;21225;-67
2021/07/30 08:19:33;;;;;;;4.80;4.40;;;;;;;20.80;58.04;97639.69;5055886;28;20219;-66
2021/07/30 08:22:01;;;;;;;4.07;3.77;;;;;;;20.91;58.91;97630.78;5054968;28;20203;-67
2021/07/30 08:24:29;;;;;;;4.20;3.80;;;;;;;21.09;58.31;97635.16;5056588;28;20889;-67
2021/07/30 08:26:57;;;;;;;5.00;4.00;;;;;;;21.33;58.45;97637.72;5052168;28;20316;-68
2021/07/30 08:29:32;;;;;;;5.87;4.37;;;;;;;21.58;57.02;97643.78;5055684;28;20217;-66
2021/07/30 08:32:00;;;;;;;5.07;4.67;;;;;;;21.64;56.64;97630.19;5057353;28;20210;-67
2021/07/30 08:34:27;;;;;;;4.37;4.10;;;;;;;21.76;53.84;97627.41;5059546;28;20215;-67
2021/07/30 08:36:55;;;;;;;4.20;3.80;;;;;;;21.57;54.64;97632.19;5058442;28;20223;-67
2021/07/30 08:39:23;;;;;;;3.67;3.47;;;;;;;21.66;55.80;97627.25;5056960;28;20203;-67
2021/07/30 08:41:53;;;;;;;3.60;3.30;;;;;;;21.99;52.56;97625.59;5053288;28;20635;-67
2021/07/30 08:44:21;;;;;;;3.37;3.17;;;;;;;21.97;52.31;97616.91;5055355;28;20248;-66
2021/07/30 08:46:52;;;;;;;4.37;3.67;;;;;;;22.10;54.01;97618.44;5059269;28;20425;-67
2021/07/30 08:49:20;;;;;;;4.30;4.00;;;;;;;22.14;51.83;97618.78;5057845;28;20202;-67
2021/07/30 08:51:51;;;;;;;4.60;3.50;;;;;;;22.19;50.99;97611.59;5057102;28;20222;-72
2021/07/30 08:54:19;;;;;;;4.10;3.80;;;;;;;22.29;53.14;97615.47;5052954;28;20199;-67
2021/07/30 08:56:47;;;;;;;4.37;3.97;;;;;;;22.36;51.12;97614.25;5053531;28;20226;-68
2021/07/30 08:59:15;;;;;;;4.10;3.73;;;;;;;22.35;51.89;97612.59;5058485;28;20217;-67
2021/07/30 09:01:43;;;;;;;4.33;4.03;;;;;;;22.52;51.17;97614.44;5057009;28;20223;-67
2021/07/30 09:04:28;;;;;;;5.80;4.40;;;;;;;22.26;51.84;97611.38;5055745;28;20207;-68
2021/07/30 09:06:57;;;;;;;4.07;3.77;;;;;;;22.35;52.59;97612.59;5057716;28;20229;-67
2021/07/30 09:09:25;;;;;;;3.67;3.47;;;;;;;22.53;52.39;97607.97;5054399;28;20206;-67
2021/07/30 09:11:58;;;;;;;4.40;4.00;;;;;;;22.46;52.11;97610.06;5057781;28;20234;-68
2021/07/30 09:14:34;;;;;;;4.40;4.00;;;;;;;22.81;51.93;97611.56;5056746;28;20199;-67
2021/07/30 09:17:04;;;;;;;4.27;3.87;;;;;;;23.03;52.11;97605.28;5056983;28;20230;-67
2021/07/30 09:19:33;;;;;;;6.30;4.00;;;;;;;23.13;50.11;97605.41;5050459;28;20517;-67
2021/07/30 09:22:06;;;;;;;4.23;4.00;;;;;;;23.27;49.58;97612.06;5054530;28;20227;-68
2021/07/30 09:24:35;;;;;;;5.20;4.80;;;;;;;23.15;48.57;97599.72;5057115;28;20206;-67
2021/07/30 09:27:04;;;;;;;4.00;3.80;;;;;;;23.50;48.41;97593.03;5053992;28;20276;-68
2021/07/30 09:29:33;;;;;;;3.90;3.70;;;;;;;23.52;49.28;97593.59;5051555;28;20231;-68
2021/07/30 09:32:03;;;;;;;3.47;3.27;;;;;;;23.98;48.85;97583.09;5058327;28;20214;-71
2021/07/30 09:34:35;;;;;;;5.03;4.33;;;;;;;24.13;47.19;97581.59;5051227;28;20220;-70
2021/07/30 09:37:05;;;;;;;4.77;3.80;;;;;;;24.18;47.67;97578.09;5054757;28;20284;-72
2021/07/30 09:39:38;;;;;;;4.90;3.80;;;;;;;24.45;47.43;97582.53;5056296;28;20207;-72
2021/07/30 09:42:08;;;;;;;4.30;4.00;;;;;;;23.91;46.81;97582.50;5050687;28;20837;-71
2021/07/30 09:44:45;;;;;;;4.30;3.73;;;;;;;23.36;47.00;97579.97;5056446;28;20638;-71
2021/07/30 09:47:14;;;;;;;3.93;3.70;;;;;;;23.62;48.21;97569.31;5062714;28;20223;-71
2021/07/30 09:49:46;;;;;;;3.90;3.70;;;;;;;23.94;47.25;97576.56;5052187;28;20241;-72
2021/07/30 09:52:16;;;;;;;4.47;4.00;;;;;;;24.02;46.99;97575.31;5048953;28;20520;-71
2021/07/30 09:54:46;;;;;;;4.37;3.97;;;;;;;24.05;45.50;97568.53;5055212;28;20206;-71
2021/07/30 09:57:15;;;;;;;4.30;4.00;;;;;;;24.17;46.14;97566.47;5056409;28;20745;-71
2021/07/30 09:59:44;;;;;;;4.80;3.90;;;;;;;23.83;46.08;97556.75;5055513;28;20240;-71
2021/07/30 10:02:14;;;;;;;3.90;3.60;;;;;;;23.81;47.12;97560.81;5057467;28;20226;-73
2021/07/30 10:04:46;;;;;;;4.07;3.77;;;;;;;23.98;46.43;97549.81;5056546;28;20234;-70
2021/07/30 10:07:16;;;;;;;4.00;3.70;;;;;;;23.89;46.48;97552.19;5054846;28;20227;-71
2021/07/30 10:09:47;;;;;;;3.73;3.33;;;;;;;23.91;45.94;97547.34;5058112;28;20538;-70
2021/07/30 10:12:15;;;;;;;3.83;3.43;;;;;;;23.92;46.52;97543.56;5052621;28;20464;-72
2021/07/30 10:14:44;;;;;;;3.57;3.37;;;;;;;23.96;46.05;97539.25;5058664;28;20207;-70
2021/07/30 10:17:15;;;;;;;4.07;3.73;;;;;;;23.75;45.40;97540.22;5054457;28;20219;-72
2021/07/30 10:19:46;;;;;;;4.77;4.37;;;;;;;23.67;46.43;97525.28;5056892;28;20203;-72
2021/07/30 10:22:16;;;;;;;5.00;3.93;;;;;;;23.80;46.94;97529.44;5055978;28;20537;-71
2021/07/30 10:24:48;;;;;;;4.27;3.97;;;;;;;24.14;46.45;97521.78;5052219;28;20200;-72
2021/07/30 10:27:17;;;;;;;3.47;3.27;;;;;;;24.36;44.64;97523.50;5058286;28;20218;-71
2021/07/30 10:30:05;;;;;;;4.57;4.27;;;;;;;24.50;44.42;97520.28;5056391;28;20214;-72
2021/07/30 10:32:44;;;;;;;4.47;4.17;;;;;;;24.47;46.02;97518.94;5055234;28;20203;-72
2021/07/30 10:35:14;;;;;;;4.57;4.20;;;;;;;24.62;45.28;97517.31;5058664;28;20211;-72
2021/07/30 10:37:43;;;;;;;4.00;3.70;;;;;;;24.63;46.68;97514.38;5056138;28;20231;-73
2021/07/30 10:40:16;;;;;;;3.83;3.53;;;;;;;24.75;45.19;97514.13;5051199;28;20421;-72
2021/07/30 10:43:01;;;;;;;4.73;4.37;;;;;;;25.13;43.04;97516.63;5057615;28;20218;-72
2021/07/30 10:45:29;;;;;;;3.80;3.57;;;;;;;25.21;42.07;97512.56;5057947;28;20650;-73
2021/07/30 10:48:31;;;;;;;4.30;4.00;;;;;;;25.35;40.69;97494.66;5051382;28;20226;-72
2021/07/30 10:51:01;;;;;;;4.10;3.80;;;;;;;26.03;39.72;97502.66;4993113;28;20218;-73
2021/07/30 10:53:49;;;;;;;4.10;3.90;;;;;;;26.42;38.15;97491.13;4995231;28;20211;-71
2021/07/30 10:56:41;;;;;;;4.40;4.00;;;;;;;26.56;38.74;97500.25;5030329;28;20230;-73
2021/07/30 10:59:09;;;;;;;4.60;4.20;;;;;;;26.81;39.34;97493.03;5044340;28;20222;-71
2021/07/30 11:02:02;;;;;;;4.37;3.70;;;;;;;27.30;38.36;97487.78;5057832;28;20664;-72
2021/07/30 11:04:31;;;;;;;5.13;4.30;;;;;;;27.91;37.33;97490.19;5057968;28;20233;-74
2021/07/30 11:07:03;;;;;;;3.90;3.70;;;;;;;27.49;37.30;97484.34;5058615;28;20234;-71
2021/07/30 11:09:38;;;;;;;3.60;3.40;;;;;;;27.77;37.18;97476.47;5057947;28;20726;-73
2021/07/30 11:12:18;;;;;;;3.70;3.50;;;;;;;28.16;37.43;97483.66;5055782;28;20204;-73
2021/07/30 11:14:50;;;;;;;4.50;3.77;;;;;;;28.69;36.88;97477.19;5059589;28;20631;-71
2021/07/30 11:17:19;;;;;;;3.83;3.60;;;;;;;28.58;34.17;97471.06;5057793;28;20229;-71
2021/07/30 11:19:48;;;;;;;3.83;3.63;;;;;;;29.02;33.70;97471.81;5057141;28;20216;-71
2021/07/30 11:22:20;;;;;;;3.63;3.43;;;;;;;28.42;33.64;97475.13;5058445;28;20236;-71
2021/07/30 11:24:49;;;;;;;3.53;3.33;;;;;;;27.96;33.64;97465.63;5050049;28;20215;-72
2021/07/30 11:27:19;;;;;;;4.53;4.13;;;;;;;27.96;34.49;97477.34;5057275;28;20219;-71
2021/07/30 11:29:48;;;;;;;4.10;3.90;;;;;;;27.90;34.16;97483.13;5053235;28;20202;-71
2021/07/30 11:32:17;;;;;;;4.30;4.10;;;;;;;27.33;33.60;97470.09;5053044;28;20195;-72
2021/07/30 11:34:46;;;;;;;4.03;3.80;;;;;;;27.92;34.48;97457.25;5056292;28;20205;-71
2021/07/30 11:37:17;;;;;;;5.73;3.83;;;;;;;28.26;33.31;97478.09;5052506;28;20614;-72
2021/07/30 11:39:48;;;;;;;4.17;3.87;;;;;;;27.61;33.81;97476.63;5055716;28;20235;-71
2021/07/30 11:42:22;;;;;;;4.30;4.00;;;;;;;27.37;34.46;97468.41;5054127;28;20227;-72